Time;durP1;ratioP1;P1;durP2;ratioP2;P2;SDS_P1;SDS_P2;PMS_P1;PMS_P2;Temp;Humidity;BMP_temperature;BMP_pressure;BME280_temperature;BME280_humidity;BME280_pressure;Samples;Min_cycle;Max_cycle;Signal;HPM_P1;HPM_P2
2023/01/18 00:00:58;;;;;;;6.80;5.10;;;;;;;-1.99;100.00;93383.06;5072048;28;20421;-74
2023/01/18 00:03:25;;;;;;;5.70;4.13;;;;;;;-1.82;100.00;93422.47;5071809;28;20491;-74
2023/01/18 00:05:53;;;;;;;3.67;3.30;;;;;;;-1.95;100.00;93396.88;5071623;28;21010;-74
2023/01/18 00:08:20;;;;;;;8.13;3.30;;;;;;;-1.82;100.00;93425.06;5071749;28;20448;-74
2023/01/18 00:10:47;;;;;;;4.27;3.23;;;;;;;-1.80;100.00;93411.78;5073150;28;20443;-74
2023/01/18 00:13:13;;;;;;;4.07;3.77;;;;;;;-1.90;100.00;93409.59;5073367;28;20420;-74
2023/01/18 00:15:42;;;;;;;6.93;3.63;;;;;;;-2.18;100.00;93366.16;5070868;28;20511;-74
2023/01/18 00:18:09;;;;;;;4.37;3.53;;;;;;;-2.05;100.00;93376.56;5072851;28;20527;-74
2023/01/18 00:20:36;;;;;;;8.43;4.53;;;;;;;-1.96;100.00;93380.59;5071527;28;20901;-74
2023/01/18 00:23:02;;;;;;;7.30;5.67;;;;;;;-1.64;100.00;93399.72;5061262;28;20560;-74
2023/01/18 00:25:29;;;;;;;8.20;5.87;;;;;;;-1.57;100.00;93404.41;5078023;28;20463;-74
2023/01/18 00:27:56;;;;;;;5.60;5.07;;;;;;;-1.50;100.00;93409.78;5051479;28;20433;-74
2023/01/18 00:30:26;;;;;;;5.60;4.80;;;;;;;-2.02;100.00;93347.44;5048824;28;20508;-74
2023/01/18 00:32:55;;;;;;;3.57;3.27;;;;;;;-1.72;100.00;93402.44;5071525;28;20527;-75
2023/01/18 00:35:23;;;;;;;3.90;3.60;;;;;;;-1.63;100.00;93403.06;5071167;28;20470;-74
2023/01/18 00:37:51;;;;;;;4.63;3.10;;;;;;;-1.80;100.00;93391.84;5071373;28;20445;-74
2023/01/18 00:40:21;;;;;;;7.00;4.07;;;;;;;-1.85;100.00;93384.28;5083203;28;20431;-74
2023/01/18 00:45:33;;;;;;;4.10;3.40;;;;;;;-1.80;100.00;93391.84;5069723;28;20460;-74
2023/01/18 00:48:01;;;;;;;5.20;4.70;;;;;;;-1.76;100.00;93383.41;5054592;28;20840;-74
2023/01/18 00:50:28;;;;;;;3.73;3.43;;;;;;;-1.68;100.00;93395.53;5071190;28;20430;-74
2023/01/18 00:52:57;;;;;;;3.83;3.53;;;;;;;-1.88;100.00;93376.38;5072469;28;20428;-74
2023/01/18 00:55:25;;;;;;;3.70;3.30;;;;;;;-2.04;100.00;93371.06;5072182;28;21017;-74
2023/01/18 00:57:51;;;;;;;4.87;3.50;;;;;;;-1.83;100.00;93376.19;5072382;28;20428;-74
2023/01/18 01:00:19;;;;;;;14.40;4.77;;;;;;;-1.87;100.00;93370.91;5071266;28;20435;-74
2023/01/18 01:02:45;;;;;;;5.97;4.10;;;;;;;-1.80;100.00;93372.94;5072434;28;20495;-74
2023/01/18 01:08:05;;;;;;;6.03;4.27;;;;;;;-1.41;100.00;93420.06;5076766;28;20460;-73
2023/01/18 01:10:33;;;;;;;5.37;4.23;;;;;;;-1.48;100.00;93423.16;5107676;28;20427;-72
2023/01/18 01:26:46;;;;;;;9.80;5.90;;;;;;;-1.39;100.00;93418.66;5068490;28;20548;-74
2023/01/18 01:29:14;;;;;;;9.13;4.80;;;;;;;-1.59;100.00;93398.78;5050253;28;20495;-74
2023/01/18 01:31:40;;;;;;;8.40;4.93;;;;;;;-1.41;100.00;93433.00;5050366;28;20439;-74
2023/01/18 01:34:07;;;;;;;7.37;5.70;;;;;;;-1.62;100.00;93407.19;5068910;28;20426;-74
2023/01/18 01:36:33;;;;;;;8.60;6.80;;;;;;;-1.56;100.00;93427.38;5070064;28;20451;-74
2023/01/18 01:39:00;;;;;;;7.77;5.20;;;;;;;-1.74;100.00;93400.13;5070058;28;20432;-74
2023/01/18 01:41:32;;;;;;;7.40;5.20;;;;;;;-1.62;100.00;93418.28;5070094;28;20457;-74
2023/01/18 01:44:03;;;;;;;5.10;4.53;;;;;;;-1.83;100.00;93384.72;5069895;28;21090;-74
2023/01/18 01:46:48;;;;;;;8.70;5.07;;;;;;;-1.80;100.00;93397.00;5070102;28;20559;-74
2023/01/18 01:49:18;;;;;;;5.13;4.30;;;;;;;-1.90;100.00;93387.06;5069941;28;20444;-74
2023/01/18 01:51:50;;;;;;;5.23;4.00;;;;;;;-1.78;100.00;93396.69;5071155;28;20446;-74
2023/01/18 01:54:27;;;;;;;4.77;3.43;;;;;;;-1.79;100.00;93395.94;5071363;28;20927;-74
2023/01/18 01:57:16;;;;;;;5.17;3.70;;;;;;;-1.93;100.00;93367.00;5071018;28;20463;-74
2023/01/18 01:59:58;;;;;;;5.40;4.37;;;;;;;-1.76;100.00;93396.38;5050002;28;20437;-74
2023/01/18 02:02:25;;;;;;;5.00;4.03;;;;;;;-1.82;100.00;93388.06;5070957;28;20438;-74
2023/01/18 02:04:54;;;;;;;4.60;4.03;;;;;;;-1.76;100.00;93398.94;5066923;28;20827;-74
2023/01/18 02:07:22;;;;;;;5.20;4.70;;;;;;;-1.83;100.00;93376.94;5053218;28;20816;-74
2023/01/18 02:09:51;;;;;;;8.50;5.20;;;;;;;-1.75;100.00;93393.44;5069518;28;20948;-74
2023/01/18 02:12:18;;;;;;;4.93;3.83;;;;;;;-1.97;100.00;93362.78;5069769;28;20812;-74
2023/01/18 02:14:45;;;;;;;6.83;4.87;;;;;;;-2.17;100.00;93341.06;5069519;28;20436;-74
2023/01/18 02:17:53;;;;;;;4.53;4.07;;;;;;;-1.75;100.00;93405.63;5070804;28;20440;-74
2023/01/18 02:20:36;;;;;;;8.80;6.60;;;;;;;-1.84;100.00;93398.72;5017192;28;20563;-74
2023/01/18 02:23:12;;;;;;;5.37;4.50;;;;;;;-1.83;100.00;93402.06;5049459;28;20464;-74
2023/01/18 02:26:03;;;;;;;5.13;4.23;;;;;;;-1.76;100.00;93404.13;5064398;28;20502;-75
2023/01/18 02:28:36;;;;;;;8.30;4.80;;;;;;;-1.75;100.00;93411.56;5069597;28;20428;-74
2023/01/18 02:31:16;;;;;;;8.43;5.63;;;;;;;-1.74;100.00;93407.16;5052687;28;20440;-74
2023/01/18 02:33:45;;;;;;;7.47;5.63;;;;;;;-1.70;100.00;93408.78;5069302;28;20503;-74
2023/01/18 02:36:29;;;;;;;7.03;5.47;;;;;;;-1.75;100.00;93403.81;5069311;28;20805;-74
2023/01/18 02:39:04;;;;;;;4.83;4.37;;;;;;;-1.78;100.00;93378.56;5070360;28;20426;-74
2023/01/18 02:47:34;;;;;;;6.07;5.47;;;;;;;-1.95;100.00;93376.91;5069714;28;20446;-75
2023/01/18 02:50:02;;;;;;;5.57;4.97;;;;;;;-1.71;100.00;93409.13;5070512;28;20515;-74
2023/01/18 02:52:37;;;;;;;7.17;5.23;;;;;;;-1.75;100.00;93406.41;5070596;28;21077;-75
2023/01/18 02:55:07;;;;;;;4.90;4.30;;;;;;;-2.10;100.00;93362.00;5052620;28;20878;-74
2023/01/18 02:57:34;;;;;;;7.73;5.00;;;;;;;-1.84;100.00;93403.16;5069099;28;20518;-75
2023/01/18 03:00:07;;;;;;;6.10;5.43;;;;;;;-1.82;100.00;93401.75;5069188;28;20432;-74
2023/01/18 03:02:36;;;;;;;6.90;6.20;;;;;;;-1.96;100.00;93380.59;5069211;28;20436;-74
2023/01/18 03:05:04;;;;;;;9.80;7.77;;;;;;;-1.85;100.00;93394.63;5069099;28;20436;-75
2023/01/18 03:07:49;;;;;;;6.97;5.90;;;;;;;-1.69;100.00;93406.97;5049401;28;20440;-74
2023/01/18 03:10:16;;;;;;;7.27;6.10;;;;;;;-2.10;100.00;93367.94;5058828;28;20420;-75
2023/01/18 03:12:59;;;;;;;7.40;5.77;;;;;;;-1.86;100.00;93389.78;5069905;28;20469;-75
2023/01/18 03:15:47;;;;;;;6.03;5.43;;;;;;;-1.72;100.00;93407.59;5048963;28;20465;-75
2023/01/18 03:18:59;;;;;;;8.17;6.60;;;;;;;-1.76;100.00;93404.88;5049329;28;20928;-75
2023/01/18 03:21:46;;;;;;;7.87;5.97;;;;;;;-1.72;100.00;93408.38;5074533;28;20419;-75
2023/01/18 03:24:14;;;;;;;7.03;5.90;;;;;;;-1.79;100.00;93402.94;5056929;28;20538;-74
2023/01/18 03:26:48;;;;;;;6.20;5.60;;;;;;;-1.67;100.00;93410.75;5072121;28;20534;-75
2023/01/18 03:35:06;;;;;;;7.33;6.30;;;;;;;-1.66;100.00;93420.00;5058867;28;20962;-75
2023/01/18 03:37:40;;;;;;;7.43;4.97;;;;;;;-1.96;100.00;93375.41;5068787;28;20681;-74
2023/01/18 03:40:15;;;;;;;6.67;5.60;;;;;;;-1.70;100.00;93423.56;5068947;28;20494;-74
2023/01/18 03:42:51;;;;;;;6.33;5.73;;;;;;;-1.87;100.00;93401.97;5070715;28;20493;-75
2023/01/18 03:45:19;;;;;;;6.73;5.50;;;;;;;-1.70;100.00;93423.56;5068622;28;20430;-74
2023/01/18 03:47:49;;;;;;;8.40;6.47;;;;;;;-2.08;100.00;93375.38;5069176;28;20424;-74
2023/01/18 03:50:28;;;;;;;8.20;6.50;;;;;;;-2.00;100.00;93382.31;5072197;28;20471;-74
2023/01/18 03:52:58;;;;;;;8.37;4.67;;;;;;;-2.00;100.00;93384.88;5072386;28;20450;-73
2023/01/18 03:55:37;;;;;;;6.03;5.13;;;;;;;-2.05;100.00;93395.44;5055451;28;20461;-73
2023/01/18 03:58:13;;;;;;;5.83;5.23;;;;;;;-1.79;100.00;93424.41;5072483;28;20427;-73
2023/01/18 04:00:40;;;;;;;7.00;6.40;;;;;;;-2.05;100.00;93384.31;5072188;28;20522;-74
2023/01/18 04:03:07;;;;;;;6.90;5.23;;;;;;;-2.08;100.00;93402.00;5072103;28;20486;-74
2023/01/18 04:05:34;;;;;;;7.47;5.57;;;;;;;-2.17;100.00;93385.78;5072144;28;21025;-73
2023/01/18 04:08:00;;;;;;;7.10;6.40;;;;;;;-2.02;100.00;93396.63;5072053;28;20803;-74
2023/01/18 04:10:27;;;;;;;6.97;6.33;;;;;;;-2.20;100.00;93365.72;5073565;28;20466;-75
2023/01/18 04:12:54;;;;;;;7.57;6.83;;;;;;;-2.03;100.00;93398.44;5076054;28;20467;-74
2023/01/18 04:15:23;;;;;;;7.10;6.40;;;;;;;-2.00;100.00;93407.41;5055826;28;20441;-74
2023/01/18 04:17:54;;;;;;;9.07;6.27;;;;;;;-2.03;100.00;93411.38;5068616;28;20551;-75
2023/01/18 04:20:22;;;;;;;7.30;5.90;;;;;;;-1.80;100.00;93428.06;5084006;28;20451;-74
2023/01/18 04:22:52;;;;;;;10.10;7.30;;;;;;;-1.74;100.00;93431.19;5056391;28;20432;-74
2023/01/18 04:25:19;;;;;;;8.50;5.60;;;;;;;-1.87;100.00;93409.72;5051395;28;20441;-75
2023/01/18 04:27:46;;;;;;;8.30;6.60;;;;;;;-1.61;100.00;93421.63;5070847;28;20514;-75
2023/01/18 04:30:15;;;;;;;10.77;7.13;;;;;;;-1.70;100.00;93410.63;5073106;28;20853;-74
2023/01/18 04:32:44;;;;;;;7.97;6.90;;;;;;;-1.41;100.00;93445.97;5054768;28;21011;-75
2023/01/18 04:35:12;;;;;;;6.20;5.67;;;;;;;-1.49;100.00;93440.53;5071333;28;20437;-75
2023/01/18 04:37:39;;;;;;;7.27;6.00;;;;;;;-1.45;100.00;93426.97;5054940;28;20448;-75
2023/01/18 04:40:06;;;;;;;8.00;6.50;;;;;;;-1.60;100.00;93407.63;5071216;28;20432;-75
2023/01/18 04:42:33;;;;;;;8.17;7.30;;;;;;;-1.16;100.00;93464.91;5051373;28;20828;-75
2023/01/18 04:44:59;;;;;;;8.90;7.00;;;;;;;-1.60;100.00;93416.16;5051124;28;20859;-75
2023/01/18 04:47:29;;;;;;;7.30;6.60;;;;;;;-1.45;100.00;93445.84;5067761;28;20453;-74
2023/01/18 04:49:56;;;;;;;8.83;7.17;;;;;;;-1.26;100.00;93469.41;5071104;28;20774;-75
2023/01/18 04:52:24;;;;;;;8.30;7.13;;;;;;;-1.30;100.00;93455.59;5054441;28;20843;-75
2023/01/18 04:54:50;;;;;;;6.10;5.60;;;;;;;-1.34;100.00;93430.63;5072324;28;20540;-74
2023/01/18 04:57:17;;;;;;;8.13;7.33;;;;;;;-1.28;100.00;93431.94;5072182;28;20550;-74
2023/01/18 04:59:44;;;;;;;7.40;6.37;;;;;;;-1.40;100.00;93414.56;5070775;28;20498;-74
2023/01/18 05:02:13;;;;;;;9.17;7.30;;;;;;;-1.00;100.00;93456.16;5071010;28;20432;-74
2023/01/18 05:04:40;;;;;;;6.33;5.70;;;;;;;-1.21;100.00;93432.91;5071086;28;20459;-74
2023/01/18 05:07:07;;;;;;;6.50;5.27;;;;;;;-1.21;100.00;93448.47;5061576;28;20456;-74
2023/01/18 05:09:34;;;;;;;8.10;5.83;;;;;;;-1.30;100.00;93445.22;5069391;28;20451;-74
2023/01/18 05:12:00;;;;;;;7.00;6.07;;;;;;;-1.06;100.00;93488.56;5060891;28;20528;-74
2023/01/18 05:14:27;;;;;;;10.10;5.93;;;;;;;-1.37;100.00;93463.13;5070528;28;20523;-76
2023/01/18 05:16:54;;;;;;;6.23;5.67;;;;;;;-1.20;100.00;93483.69;5070876;28;20960;-74
2023/01/18 05:19:20;;;;;;;7.20;6.43;;;;;;;-1.27;100.00;93475.66;5070325;28;20952;-74
2023/01/18 05:21:47;;;;;;;8.63;5.00;;;;;;;-1.47;100.00;93458.34;5070536;28;20428;-74
2023/01/18 05:24:14;;;;;;;8.50;5.80;;;;;;;-1.28;100.00;93494.91;5053563;28;20754;-74
2023/01/18 05:26:40;;;;;;;8.60;5.57;;;;;;;-1.56;100.00;93470.66;5070696;28;20540;-74
2023/01/18 05:29:07;;;;;;;7.67;5.70;;;;;;;-1.42;100.00;93484.06;5070136;28;20436;-74
2023/01/18 05:31:34;;;;;;;9.17;6.37;;;;;;;-1.72;100.00;93459.38;5070238;28;20436;-74
2023/01/18 05:34:01;;;;;;;6.83;5.77;;;;;;;-1.93;100.00;93439.47;5070471;28;20481;-74
2023/01/18 05:36:27;;;;;;;9.53;7.00;;;;;;;-1.93;100.00;93444.63;5070157;28;20480;-74
2023/01/18 05:38:54;;;;;;;9.20;6.80;;;;;;;-1.65;100.00;93483.66;5053571;28;20557;-75
2023/01/18 05:41:21;;;;;;;11.27;7.73;;;;;;;-1.51;100.00;93498.94;5070460;28;20482;-75
2023/01/18 05:43:48;;;;;;;8.60;7.70;;;;;;;-1.49;100.00;93505.28;5071317;28;20471;-75
2023/01/18 05:46:14;;;;;;;9.33;8.33;;;;;;;-1.77;100.00;93462.91;5070074;28;21018;-75
2023/01/18 05:48:41;;;;;;;8.67;7.17;;;;;;;-1.91;100.00;93445.06;5069862;28;20543;-75
2023/01/18 05:51:09;;;;;;;7.43;6.73;;;;;;;-1.72;100.00;93486.03;5071347;28;20464;-74
2023/01/18 05:53:37;;;;;;;7.53;6.43;;;;;;;-1.64;100.00;93494.78;5069871;28;20485;-74
2023/01/18 05:56:06;;;;;;;8.17;5.80;;;;;;;-1.50;100.00;93508.97;5069771;28;20475;-75
2023/01/18 05:58:33;;;;;;;8.83;6.70;;;;;;;-1.40;100.00;93518.19;5070086;28;20459;-75
2023/01/18 06:00:59;;;;;;;8.57;7.33;;;;;;;-1.54;100.00;93500.34;5071065;28;20551;-74
2023/01/18 06:03:26;;;;;;;8.33;7.50;;;;;;;-1.55;100.00;93516.94;5075233;28;20822;-76
2023/01/18 06:05:53;;;;;;;13.67;8.70;;;;;;;-1.42;100.00;93535.13;5069904;28;20456;-75
2023/01/18 06:08:20;;;;;;;12.70;9.73;;;;;;;-1.43;100.00;93539.53;5074598;28;20451;-76
2023/01/18 06:10:55;;;;;;;12.67;11.30;;;;;;;-1.62;100.00;93484.88;5077717;28;20431;-75
2023/01/18 06:13:23;;;;;;;10.17;7.87;;;;;;;-1.69;100.00;93475.03;5082109;28;20947;-75
2023/01/18 06:15:50;;;;;;;13.53;8.73;;;;;;;-1.08;100.00;93539.19;5084348;28;20446;-76
2023/01/18 06:18:17;;;;;;;13.47;8.27;;;;;;;-1.41;100.00;93490.75;5076732;28;20912;-76
2023/01/18 06:20:44;;;;;;;10.47;9.47;;;;;;;-1.27;100.00;93513.78;5059411;28;20960;-76
2023/01/18 06:23:10;;;;;;;14.43;11.63;;;;;;;-1.12;100.00;93548.69;5082087;28;20436;-76
2023/01/18 06:25:37;;;;;;;12.40;8.83;;;;;;;-1.39;100.00;93493.78;5082807;28;21010;-76
2023/01/18 06:28:04;;;;;;;13.37;8.70;;;;;;;-1.30;100.00;93496.28;5077166;28;20538;-77
2023/01/18 06:30:32;;;;;;;11.90;8.60;;;;;;;-1.08;100.00;93552.16;5075787;28;20479;-76
2023/01/18 06:33:03;;;;;;;10.60;9.50;;;;;;;-1.29;100.00;93534.84;5065422;28;20853;-76
2023/01/18 06:35:30;;;;;;;8.53;7.50;;;;;;;-1.18;100.00;93529.25;5084272;28;20435;-76
2023/01/18 06:37:57;;;;;;;12.07;7.93;;;;;;;-0.85;100.00;93570.66;5077946;28;20435;-76
2023/01/18 06:40:23;;;;;;;9.50;7.60;;;;;;;-1.15;100.00;93544.16;5074446;28;21359;-76
2023/01/18 06:42:50;;;;;;;12.10;7.87;;;;;;;-0.94;100.00;93583.72;5078628;28;20450;-76
2023/01/18 06:45:18;;;;;;;10.33;7.37;;;;;;;-0.78;100.00;93589.81;5075693;28;20850;-76
2023/01/18 06:47:45;;;;;;;9.87;8.10;;;;;;;-1.00;100.00;93561.69;5080258;28;20423;-76
2023/01/18 06:50:11;;;;;;;9.07;7.93;;;;;;;-0.92;100.00;93590.13;5057833;28;20428;-75
2023/01/18 06:52:38;;;;;;;10.47;7.90;;;;;;;-0.93;100.00;93570.47;5080438;28;20515;-76
2023/01/18 06:55:05;;;;;;;11.70;8.63;;;;;;;-1.21;100.00;93546.19;5073779;28;20531;-76
2023/01/18 06:57:31;;;;;;;9.37;8.40;;;;;;;-1.06;100.00;93589.66;5050576;28;20435;-76
2023/01/18 07:00:00;;;;;;;8.93;6.53;;;;;;;-1.03;100.00;93598.63;5067818;28;20482;-76
2023/01/18 07:02:27;;;;;;;13.03;8.50;;;;;;;-1.26;100.00;93577.47;5087216;28;20439;-74
2023/01/18 07:04:54;;;;;;;12.67;8.30;;;;;;;-1.44;100.00;93552.81;5086592;28;20490;-75
2023/01/18 07:07:23;;;;;;;12.90;8.50;;;;;;;-1.03;100.00;93596.78;5107683;28;20458;-76
2023/01/18 07:09:50;;;;;;;12.97;8.90;;;;;;;-0.82;100.00;93607.09;5092540;28;20510;-74
2023/01/18 07:12:17;;;;;;;10.33;8.37;;;;;;;-1.05;100.00;93595.59;5091393;28;20453;-74
2023/01/18 07:14:44;;;;;;;15.70;9.20;;;;;;;-1.23;100.00;93576.84;5076139;28;20529;-74
2023/01/18 07:17:10;;;;;;;12.87;9.03;;;;;;;-1.02;100.00;93620.88;5050822;28;20449;-74
2023/01/18 07:19:37;;;;;;;17.93;9.47;;;;;;;-1.60;100.00;93527.50;5082625;28;20479;-74
2023/01/18 07:22:04;;;;;;;14.40;10.53;;;;;;;-1.20;100.00;93587.34;5080876;28;20431;-75
2023/01/18 07:24:31;;;;;;;10.47;9.20;;;;;;;-1.21;100.00;93580.63;5076592;28;20472;-76
2023/01/18 07:26:58;;;;;;;14.50;10.37;;;;;;;-1.05;100.00;93590.41;5065459;28;20470;-77
2023/01/18 07:29:25;;;;;;;11.60;7.93;;;;;;;-1.00;100.00;93587.59;5087814;28;20950;-75
2023/01/18 07:31:52;;;;;;;10.60;8.47;;;;;;;-1.24;100.00;93583.84;5084485;28;20433;-75
2023/01/18 07:34:18;;;;;;;11.83;8.80;;;;;;;-0.94;100.00;93636.31;5079426;28;20511;-75
2023/01/18 07:36:45;;;;;;;10.73;9.60;;;;;;;-1.09;100.00;93610.25;5064755;28;20558;-75
2023/01/18 07:39:11;;;;;;;10.37;9.10;;;;;;;-1.11;100.00;93605.38;5079215;28;20454;-75
2023/01/18 07:41:38;;;;;;;17.47;9.30;;;;;;;-0.97;100.00;93638.81;5069564;28;20528;-75
2023/01/18 07:44:05;;;;;;;8.97;8.07;;;;;;;-0.96;100.00;93650.69;5053004;28;20422;-75
2023/01/18 07:46:32;;;;;;;12.83;10.00;;;;;;;-0.94;100.00;93646.69;5076575;28;20499;-75
2023/01/18 07:49:01;;;;;;;9.83;8.80;;;;;;;-0.94;100.00;93651.13;5074119;28;20424;-75
2023/01/18 07:51:27;;;;;;;11.60;8.83;;;;;;;-1.16;100.00;93618.56;5084871;28;20484;-75
2023/01/18 07:53:54;;;;;;;10.93;8.20;;;;;;;-1.14;100.00;93598.25;5073795;28;20510;-76
2023/01/18 07:56:22;;;;;;;10.80;8.27;;;;;;;-1.25;100.00;93577.16;5085652;28;20899;-75
2023/01/18 07:58:49;;;;;;;12.93;9.70;;;;;;;-0.80;100.00;93645.66;5062492;28;20527;-75
2023/01/18 08:01:19;;;;;;;14.73;9.23;;;;;;;-0.53;100.00;93680.66;5062491;28;20539;-75
2023/01/18 08:03:47;;;;;;;10.20;8.57;;;;;;;-0.63;100.00;93677.38;5061547;28;20518;-75
2023/01/18 08:06:18;;;;;;;10.93;8.07;;;;;;;-0.56;100.00;93692.41;5066809;28;20972;-75
2023/01/18 08:08:44;;;;;;;9.70;7.73;;;;;;;-0.89;100.00;93648.34;5072150;28;20424;-75
2023/01/18 08:11:11;;;;;;;13.13;8.90;;;;;;;-0.87;100.00;93656.56;5087413;28;20438;-75
2023/01/18 08:13:38;;;;;;;11.77;8.80;;;;;;;-0.71;100.00;93683.41;5083369;28;20460;-75
2023/01/18 08:16:07;;;;;;;14.13;10.93;;;;;;;-0.68;100.00;93689.78;5057415;28;20455;-75
2023/01/18 08:18:34;;;;;;;14.77;11.83;;;;;;;-0.53;100.00;93694.38;5061347;28;20447;-75
2023/01/18 08:21:00;;;;;;;17.10;14.10;;;;;;;-0.66;100.00;93685.06;5065569;28;20958;-75
2023/01/18 08:23:27;;;;;;;43.17;31.77;;;;;;;-0.82;100.00;93655.59;5051792;28;20937;-75
2023/01/18 08:25:54;;;;;;;21.53;15.47;;;;;;;-0.78;100.00;93685.78;5064846;28;20570;-75
2023/01/18 08:28:20;;;;;;;19.40;13.37;;;;;;;-0.76;100.00;93680.25;5062841;28;20921;-75
2023/01/18 08:30:48;;;;;;;20.63;13.20;;;;;;;-0.65;100.00;93699.53;5086504;28;20852;-75
2023/01/18 08:33:15;;;;;;;16.40;12.23;;;;;;;-0.72;100.00;93701.88;5072999;28;20432;-75
2023/01/18 08:35:44;;;;;;;19.20;13.17;;;;;;;-0.79;100.00;93707.59;5080638;28;20449;-75
2023/01/18 08:38:12;;;;;;;14.10;10.87;;;;;;;-0.87;100.00;93705.81;5053164;28;20474;-75
2023/01/18 08:40:39;;;;;;;17.67;12.33;;;;;;;-0.97;100.00;93694.00;5049715;28;21105;-75
2023/01/18 08:43:06;;;;;;;16.63;14.90;;;;;;;-1.12;100.00;93670.50;5051639;28;20428;-75
2023/01/18 08:45:36;;;;;;;31.10;26.03;;;;;;;-0.85;100.00;93697.72;5065150;28;20485;-76
2023/01/18 08:48:09;;;;;;;24.10;17.93;;;;;;;-1.01;100.00;93697.56;5064029;28;20436;-76
2023/01/18 08:50:38;;;;;;;18.10;16.20;;;;;;;-0.95;100.00;93702.22;5084923;28;20531;-76
2023/01/18 08:53:04;;;;;;;16.10;14.47;;;;;;;-0.90;100.00;93709.06;5084823;28;20526;-76
2023/01/18 08:55:32;;;;;;;16.57;14.80;;;;;;;-1.02;100.00;93706.41;5071231;28;20960;-75
2023/01/18 08:57:59;;;;;;;25.97;20.90;;;;;;;-0.94;100.00;93695.19;5058230;28;20430;-76
2023/01/18 09:00:29;;;;;;;26.67;18.97;;;;;;;-0.68;100.00;93742.41;5091482;28;20419;-76
2023/01/18 09:02:57;;;;;;;20.43;14.87;;;;;;;-0.85;100.00;93739.97;5057801;28;20437;-76
2023/01/18 09:05:25;;;;;;;20.60;15.77;;;;;;;-0.77;100.00;93741.00;5071580;28;20463;-75
2023/01/18 09:07:54;;;;;;;16.77;13.60;;;;;;;-0.79;100.00;93732.78;5084321;28;20435;-75
2023/01/18 09:10:21;;;;;;;15.63;14.07;;;;;;;-0.73;100.00;93740.03;5062246;28;20504;-75
2023/01/18 09:12:48;;;;;;;21.50;15.80;;;;;;;-0.84;100.00;93707.78;5071902;28;20460;-75
2023/01/18 09:15:17;;;;;;;20.13;15.40;;;;;;;-0.68;100.00;93739.81;5082883;28;20765;-75
2023/01/18 09:17:44;;;;;;;18.30;14.10;;;;;;;-0.68;100.00;93750.19;5070606;28;20562;-75
2023/01/18 09:20:11;;;;;;;15.90;13.50;;;;;;;-0.89;100.00;93731.31;5080838;28;20431;-75
2023/01/18 09:22:38;;;;;;;20.27;14.20;;;;;;;-0.78;100.00;93739.47;5087885;28;20447;-75
2023/01/18 09:25:05;;;;;;;19.40;15.73;;;;;;;-0.42;100.00;93777.75;5070324;28;20480;-75
2023/01/18 09:27:32;;;;;;;17.70;13.90;;;;;;;-0.47;100.00;93777.97;5084201;28;20962;-75
2023/01/18 09:29:59;;;;;;;17.97;13.97;;;;;;;-0.62;100.00;93750.78;5080333;28;20935;-75
2023/01/18 09:32:26;;;;;;;17.47;14.50;;;;;;;-0.68;100.00;93742.41;5074040;28;20914;-75
2023/01/18 09:34:53;;;;;;;15.60;13.57;;;;;;;-0.51;100.00;93758.94;5061756;28;20789;-75
2023/01/18 09:37:20;;;;;;;23.07;15.97;;;;;;;-0.43;100.00;93771.03;5080967;28;20550;-75
2023/01/18 09:39:48;;;;;;;143.40;76.33;;;;;;;-0.51;100.00;93744.13;5081069;28;20496;-75
2023/01/18 09:42:26;;;;;;;58.07;34.50;;;;;;;-0.07;100.00;93789.31;5074552;28;20435;-75
2023/01/18 09:44:58;;;;;;;27.17;17.90;;;;;;;-0.19;100.00;93763.34;5073837;28;20451;-75
2023/01/18 09:47:29;;;;;;;21.70;14.33;;;;;;;0.17;100.00;93799.00;5089900;28;20449;-75
2023/01/18 09:49:58;;;;;;;20.47;14.07;;;;;;;0.09;100.00;93804.28;5074190;28;20527;-75
2023/01/18 09:52:31;;;;;;;24.63;21.03;;;;;;;0.26;100.00;93811.88;5084318;28;20427;-75
2023/01/18 09:55:07;;;;;;;21.20;16.03;;;;;;;0.16;100.00;93814.91;5070603;28;20531;-75
2023/01/18 09:57:59;;;;;;;20.77;15.30;;;;;;;0.05;100.00;93819.00;5080554;28;20883;-75
2023/01/18 10:00:29;;;;;;;23.57;15.43;;;;;;;0.02;100.00;93823.00;5065948;28;20442;-75
2023/01/18 10:03:01;;;;;;;33.27;24.80;;;;;;;0.06;100.00;93786.75;5075021;28;20425;-75
2023/01/18 10:05:32;;;;;;;27.10;21.60;;;;;;;0.04;100.00;93820.84;5066932;28;20459;-75
2023/01/18 10:08:04;;;;;;;24.73;18.50;;;;;;;-0.04;100.00;93780.13;5075404;28;20463;-75
2023/01/18 10:10:36;;;;;;;36.97;28.67;;;;;;;0.00;100.00;93794.00;5081282;28;20503;-75
2023/01/18 10:13:36;;;;;;;21.10;17.30;;;;;;;-0.05;100.00;93828.72;5085996;28;20423;-75
2023/01/18 10:16:13;;;;;;;20.87;15.10;;;;;;;-0.01;100.00;93803.59;5081960;28;20491;-75
2023/01/18 10:18:46;;;;;;;19.30;15.93;;;;;;;0.36;100.00;93839.28;5091509;28;20408;-75
2023/01/18 10:21:34;;;;;;;21.03;14.77;;;;;;;0.05;100.00;93816.41;5076410;28;20412;-75
2023/01/18 10:24:16;;;;;;;17.30;14.63;;;;;;;0.20;100.00;93841.75;5077880;28;20463;-75
2023/01/18 10:26:45;;;;;;;20.60;16.30;;;;;;;0.10;100.00;93824.75;5081434;28;20956;-75
2023/01/18 10:29:19;;;;;;;23.20;18.10;;;;;;;-0.04;100.00;93817.25;5073936;28;20435;-74
2023/01/18 10:32:03;;;;;;;150.03;90.20;;;;;;;-0.01;100.00;93811.41;5068485;28;20513;-75
2023/01/18 10:34:33;;;;;;;85.17;50.43;;;;;;;0.03;100.00;93842.69;5066294;28;20435;-75
2023/01/18 10:37:13;;;;;;;20.43;15.53;;;;;;;-0.10;100.00;93844.50;5076796;28;20887;-75
2023/01/18 10:39:47;;;;;;;38.77;24.57;;;;;;;0.02;100.00;93850.81;5063736;28;20432;-75
2023/01/18 10:42:45;;;;;;;90.80;63.33;;;;;;;-0.05;100.00;93851.31;5085247;28;20508;-75
2023/01/18 10:45:20;;;;;;;28.67;18.90;;;;;;;-0.14;100.00;93851.38;5077347;28;20483;-75
2023/01/18 10:47:49;;;;;;;24.00;15.17;;;;;;;-0.29;100.00;93831.22;5053548;28;20439;-75
2023/01/18 10:50:18;;;;;;;52.70;36.47;;;;;;;-0.01;100.00;93855.53;5061673;28;20423;-76
2023/01/18 10:52:48;;;;;;;24.07;16.40;;;;;;;-0.10;100.00;93856.72;5079266;28;20451;-75
2023/01/18 10:55:17;;;;;;;19.00;16.47;;;;;;;0.08;100.00;93865.09;5083324;28;20437;-75
2023/01/18 10:57:50;;;;;;;27.00;18.73;;;;;;;0.05;100.00;93857.97;5083101;28;20491;-75
2023/01/18 11:00:25;;;;;;;26.57;18.07;;;;;;;0.25;100.00;93868.28;5081814;28;20468;-76
2023/01/18 11:02:54;;;;;;;30.83;22.30;;;;;;;0.21;100.00;93879.66;5080684;28;20438;-75
2023/01/18 11:05:33;;;;;;;39.87;30.07;;;;;;;0.09;100.00;93858.81;5079750;28;20465;-75
2023/01/18 11:08:10;;;;;;;27.53;24.00;;;;;;;0.20;100.00;93889.28;5078243;28;20473;-75
2023/01/18 11:10:37;;;;;;;24.03;17.53;;;;;;;0.18;100.00;93888.09;5066181;28;20447;-75
2023/01/18 11:13:31;;;;;;;29.00;20.47;;;;;;;0.13;100.00;93883.06;5087998;28;20436;-75
2023/01/18 11:16:14;;;;;;;26.03;16.17;;;;;;;0.17;100.00;93892.53;5088875;28;20530;-75
2023/01/18 11:19:00;;;;;;;29.30;22.10;;;;;;;0.09;100.00;93892.59;5062550;28;20432;-75
2023/01/18 11:21:39;;;;;;;34.17;23.13;;;;;;;0.06;100.00;93885.44;5068014;28;20415;-75
2023/01/18 11:24:13;;;;;;;37.60;25.13;;;;;;;0.12;100.00;93895.31;5077867;28;20431;-75
2023/01/18 11:27:00;;;;;;;51.00;28.07;;;;;;;0.16;100.00;93895.44;5083680;28;20833;-75
2023/01/18 11:29:34;;;;;;;41.00;19.67;;;;;;;-0.06;100.00;93873.94;5063289;28;20431;-75
2023/01/18 11:32:08;;;;;;;26.43;20.87;;;;;;;0.15;100.00;93907.66;5066483;28;20491;-74
2023/01/18 11:34:38;;;;;;;20.60;14.67;;;;;;;0.21;100.00;93910.81;5068122;28;20418;-75
2023/01/18 11:37:35;;;;;;;23.70;15.83;;;;;;;0.15;100.00;93904.31;5079200;28;20451;-75
2023/01/18 11:40:17;;;;;;;20.97;16.03;;;;;;;0.29;100.00;93908.16;5086206;28;20471;-74
2023/01/18 11:42:45;;;;;;;27.67;18.60;;;;;;;0.13;100.00;93880.47;5072159;28;20855;-74
2023/01/18 11:45:44;;;;;;;35.30;19.20;;;;;;;0.34;100.00;93914.22;5079096;28;20555;-74
2023/01/18 11:48:47;;;;;;;21.27;14.30;;;;;;;0.32;100.00;93922.34;5094426;28;20407;-74
2023/01/18 11:51:32;;;;;;;22.73;16.00;;;;;;;0.11;100.00;93875.59;5076415;28;20446;-74
2023/01/18 11:54:17;;;;;;;18.13;14.40;;;;;;;0.38;100.00;93926.22;5080611;28;20966;-74
2023/01/18 11:56:49;;;;;;;16.77;12.43;;;;;;;0.36;100.00;93928.41;5080338;28;20449;-74
2023/01/18 11:59:31;;;;;;;28.30;19.03;;;;;;;0.39;100.00;93932.94;5083383;28;20434;-74
2023/01/18 12:02:26;;;;;;;32.00;21.67;;;;;;;0.27;100.00;93925.13;5085873;28;20827;-74
2023/01/18 12:05:21;;;;;;;39.77;25.97;;;;;;;0.36;100.00;93940.63;5059988;28;20436;-74
2023/01/18 12:08:03;;;;;;;34.90;22.83;;;;;;;0.22;100.00;93946.09;5072211;28;20448;-74